Time;durP1;ratioP1;P1;durP2;ratioP2;P2;SDS_P1;SDS_P2;PMS_P1;PMS_P2;Temp;Humidity;BMP_temperature;BMP_pressure;BME280_temperature;BME280_humidity;BME280_pressure;Samples;Min_cycle;Max_cycle;Signal;HPM_P1;HPM_P2
2023/06/04 00:02:15;;;;;;;12.90;5.43;;;;;;;10.11;100.00;102323.94;10258269;28;20341;-70
2023/06/04 00:07:16;;;;;;;13.57;4.63;;;;;;;10.06;100.00;102326.47;10277088;28;20030;-69
2023/06/04 00:12:17;;;;;;;10.05;4.30;;;;;;;10.03;100.00;102318.66;10281677;28;20038;-69
2023/06/04 00:17:18;;;;;;;14.35;3.88;;;;;;;9.99;100.00;102322.91;10252160;28;20046;-70
2023/06/04 00:22:20;;;;;;;9.07;4.55;;;;;;;9.98;100.00;102323.94;10255472;28;20046;-70
2023/06/04 00:27:20;;;;;;;11.80;4.57;;;;;;;9.98;100.00;102312.94;10292333;28;20047;-70
2023/06/04 00:32:21;;;;;;;11.77;4.72;;;;;;;9.97;100.00;102314.03;10300059;28;20043;-70
2023/06/04 00:37:22;;;;;;;10.65;5.03;;;;;;;9.99;100.00;102318.25;10307194;28;20583;-70
2023/06/04 00:42:23;;;;;;;12.38;4.55;;;;;;;9.96;100.00;102310.41;10339280;28;20034;-70
2023/06/04 00:47:23;;;;;;;10.20;4.18;;;;;;;9.94;100.00;102317.19;10338996;28;20529;-70
2023/06/04 00:52:24;;;;;;;11.52;4.03;;;;;;;9.98;100.00;102312.94;10287300;28;20043;-70
2023/06/04 00:57:25;;;;;;;8.15;4.47;;;;;;;9.97;100.00;102314.03;10264388;28;20035;-70
2023/06/04 01:02:25;;;;;;;10.25;4.30;;;;;;;9.90;100.00;102314.00;10273111;28;20043;-70
2023/06/04 01:07:27;;;;;;;10.00;3.70;;;;;;;9.89;100.00;102315.09;10295920;28;20081;-70
2023/06/04 01:12:28;;;;;;;14.40;4.65;;;;;;;9.87;100.00;102315.28;10296723;28;20102;-69
2023/06/04 01:17:37;;;;;;;14.40;4.72;;;;;;;9.82;100.00;102309.59;10296482;28;20035;-69
2023/06/04 01:22:43;;;;;;;19.70;5.93;;;;;;;9.92;100.00;102322.06;10282637;28;20038;-70
2023/06/04 01:27:44;;;;;;;13.88;4.70;;;;;;;9.83;100.00;102311.28;10290896;28;20042;-70
2023/06/04 01:32:46;;;;;;;9.90;4.60;;;;;;;9.87;100.00;102329.03;10302918;28;20130;-69
2023/06/04 01:37:47;;;;;;;12.13;4.70;;;;;;;9.86;100.00;102316.38;10296687;28;20467;-69
2023/06/04 01:42:47;;;;;;;8.13;4.72;;;;;;;9.84;100.00;102317.66;10294811;28;20099;-68
2023/06/04 01:47:48;;;;;;;12.90;5.10;;;;;;;9.85;100.00;102322.91;10265536;28;20484;-69
2023/06/04 01:52:49;;;;;;;12.98;4.60;;;;;;;9.80;100.00;102314.47;10259128;28;20054;-69
2023/06/04 01:57:50;;;;;;;15.43;4.82;;;;;;;9.72;100.00;102308.34;10251333;28;20485;-70
2023/06/04 02:02:51;;;;;;;13.93;4.40;;;;;;;9.62;100.00;102314.28;10253856;28;20109;-70
2023/06/04 02:07:52;;;;;;;20.67;4.65;;;;;;;9.61;100.00;102318.94;10252052;28;20039;-70
2023/06/04 02:13:04;;;;;;;13.68;6.50;;;;;;;9.59;100.00;102315.56;10254992;28;20047;-68
2023/06/04 02:18:15;;;;;;;19.63;5.20;;;;;;;9.58;100.00;102315.75;10237898;28;20093;-68
2023/06/04 02:23:17;;;;;;;15.32;5.25;;;;;;;9.56;100.00;102320.63;10253522;28;20039;-69
2023/06/04 02:28:17;;;;;;;9.00;3.33;;;;;;;9.48;100.00;102314.25;10252478;28;20419;-70
2023/06/04 02:33:18;;;;;;;14.70;4.25;;;;;;;9.41;100.00;102316.19;10253606;28;20039;-69
2023/06/04 02:38:18;;;;;;;15.25;4.57;;;;;;;9.17;100.00;102294.81;10253696;28;20483;-70
2023/06/04 02:43:19;;;;;;;13.88;4.82;;;;;;;9.26;100.00;102318.28;10258067;28;20415;-69
2023/06/04 02:48:19;;;;;;;16.60;4.45;;;;;;;9.20;100.00;102327.34;10252168;28;20034;-68
2023/06/04 02:53:20;;;;;;;10.10;4.82;;;;;;;9.14;100.00;102312.59;10279532;28;20114;-69
2023/06/04 02:58:24;;;;;;;15.00;5.28;;;;;;;9.06;100.00;102326.50;10228847;28;20073;-69
2023/06/04 03:03:26;;;;;;;15.18;4.72;;;;;;;8.91;100.00;102312.09;10257702;28;20039;-69
2023/06/04 03:08:27;;;;;;;14.82;5.68;;;;;;;8.65;100.00;102276.13;10274715;28;20035;-69
2023/06/04 03:13:27;;;;;;;15.93;5.05;;;;;;;8.83;100.00;102315.91;10268002;28;20035;-68
2023/06/04 03:18:28;;;;;;;13.40;6.07;;;;;;;8.71;100.00;102301.94;10287943;28;20035;-70
2023/06/04 03:23:30;;;;;;;9.85;5.03;;;;;;;8.79;100.00;102325.63;10272727;28;20042;-68
2023/06/04 03:28:31;;;;;;;16.75;6.00;;;;;;;8.78;100.00;102318.41;10284625;28;20050;-69
2023/06/04 03:33:32;;;;;;;15.70;6.53;;;;;;;8.76;100.00;102321.34;10288466;28;20039;-69
2023/06/04 03:38:33;;;;;;;17.27;5.57;;;;;;;8.77;100.00;102312.09;10290261;28;20039;-69
2023/06/04 03:43:34;;;;;;;15.52;7.22;;;;;;;8.81;100.00;102315.28;10294540;28;20038;-69
2023/06/04 03:48:34;;;;;;;13.52;6.45;;;;;;;8.93;100.00;102327.34;10292603;28;20042;-70
2023/06/04 03:53:36;;;;;;;19.08;6.97;;;;;;;8.96;100.00;102318.66;10278347;28;20039;-69
2023/06/04 03:58:38;;;;;;;14.80;7.47;;;;;;;9.02;100.00;102322.50;10248381;28;20031;-69
2023/06/04 04:03:39;;;;;;;16.33;7.80;;;;;;;9.11;100.00;102312.16;10246333;28;20043;-70
2023/06/04 04:08:42;;;;;;;18.20;7.65;;;;;;;9.21;100.00;102313.41;10248500;28;20121;-68
2023/06/04 04:13:44;;;;;;;19.35;9.35;;;;;;;9.33;100.00;102321.88;10243159;28;20051;-68
2023/06/04 04:18:44;;;;;;;21.48;9.18;;;;;;;9.42;100.00;102320.63;10247981;28;20039;-70
2023/06/04 04:23:45;;;;;;;20.98;9.88;;;;;;;9.54;100.00;102333.75;10240035;28;20055;-70
2023/06/04 04:28:45;;;;;;;22.60;9.65;;;;;;;9.65;100.00;102330.34;10262311;28;20129;-68
2023/06/04 04:33:46;;;;;;;16.15;9.85;;;;;;;9.74;100.00;102311.75;10264239;28;20046;-69
2023/06/04 04:38:53;;;;;;;25.08;9.43;;;;;;;9.93;100.00;102327.34;10263066;28;20067;-69
2023/06/04 04:43:54;;;;;;;28.00;9.55;;;;;;;10.05;100.00;102335.81;10244463;28;20066;-69
2023/06/04 04:48:55;;;;;;;24.52;9.48;;;;;;;10.17;100.00;102328.56;10246233;28;20045;-70
2023/06/04 04:53:55;;;;;;;19.95;10.40;;;;;;;10.20;100.00;102317.13;10279756;28;20043;-69
2023/06/04 04:58:56;;;;;;;18.00;7.47;;;;;;;10.31;100.00;102326.63;10287840;28;20504;-70
2023/06/04 05:03:57;;;;;;;19.15;7.90;;;;;;;10.36;100.00;102312.25;10272192;28;20049;-70
2023/06/04 05:08:57;;;;;;;15.27;7.85;;;;;;;10.44;100.00;102318.34;10251101;28;20090;-70
2023/06/04 05:13:57;;;;;;;23.85;7.70;;;;;;;10.48;100.00;102313.25;10235771;28;20098;-70
2023/06/04 05:18:58;;;;;;;13.65;6.30;;;;;;;10.63;100.00;102327.56;10253551;28;20074;-69
2023/06/04 05:23:59;;;;;;;14.13;7.20;;;;;;;10.75;100.00;102333.25;10255245;28;20067;-69
2023/06/04 05:29:01;;;;;;;15.13;6.00;;;;;;;10.84;100.00;102320.06;10256289;28;20070;-70
2023/06/04 05:34:04;;;;;;;13.05;6.07;;;;;;;11.00;100.00;102322.28;10256974;28;20071;-70
2023/06/04 05:39:04;;;;;;;12.10;4.18;;;;;;;11.16;100.00;102325.56;10255965;28;20099;-70
2023/06/04 05:44:05;;;;;;;13.10;4.32;;;;;;;11.28;100.00;102329.28;10257480;28;20035;-70
2023/06/04 05:49:05;;;;;;;15.38;5.05;;;;;;;11.47;100.00;102338.47;10238224;28;20039;-68
2023/06/04 05:54:06;;;;;;;17.65;5.07;;;;;;;11.75;100.00;102340.78;10255335;28;20431;-69
2023/06/04 05:59:06;;;;;;;11.20;4.03;;;;;;;12.16;100.00;102335.75;10253533;28;20042;-70
2023/06/04 06:04:07;;;;;;;12.55;4.10;;;;;;;12.39;100.00;102321.25;10249535;28;20031;-70
2023/06/04 06:09:08;;;;;;;14.77;3.83;;;;;;;12.79;100.00;102329.00;10266710;28;20058;-69
2023/06/04 06:14:09;;;;;;;13.82;3.55;;;;;;;13.14;100.00;102329.13;10255876;28;20126;-69
2023/06/04 06:19:11;;;;;;;10.15;3.28;;;;;;;13.34;100.00;102330.81;10252816;28;20090;-70
2023/06/04 06:24:11;;;;;;;11.13;3.90;;;;;;;13.47;100.00;102320.34;10253226;28;20039;-70
2023/06/04 06:29:14;;;;;;;9.10;2.13;;;;;;;13.58;100.00;102327.00;10254304;28;20042;-70
2023/06/04 06:34:14;;;;;;;11.93;2.78;;;;;;;13.47;100.00;102323.09;10254090;28;20035;-68
2023/06/04 06:39:15;;;;;;;5.03;1.92;;;;;;;13.31;100.00;102321.91;10252969;28;20474;-70
2023/06/04 06:44:16;;;;;;;7.35;2.00;;;;;;;13.58;100.00;102337.19;10294470;28;20038;-69
2023/06/04 06:49:16;;;;;;;6.72;2.20;;;;;;;13.83;100.00;102324.00;10293154;28;20053;-70
2023/06/04 06:54:17;;;;;;;12.88;2.17;;;;;;;14.22;100.00;102324.31;10256655;28;20148;-70
2023/06/04 06:59:18;;;;;;;6.47;1.77;;;;;;;14.56;100.00;102329.22;10237114;28;20036;-71
2023/06/04 07:04:18;;;;;;;7.90;2.00;;;;;;;14.86;100.00;102324.28;10253844;28;20050;-70
2023/06/04 07:09:19;;;;;;;8.15;1.63;;;;;;;14.97;100.00;102271.78;10251770;28;20046;-70
2023/06/04 07:14:20;;;;;;;9.10;1.60;;;;;;;15.63;100.00;102319.25;10253363;28;20130;-70
2023/06/04 07:19:20;;;;;;;5.28;1.33;;;;;;;15.92;100.00;102318.03;10263077;28;20038;-70
2023/06/04 07:24:21;;;;;;;4.03;1.48;;;;;;;16.14;100.00;102314.44;10275954;28;20079;-69
2023/06/04 07:29:22;;;;;;;7.20;1.45;;;;;;;16.36;100.00;102311.69;10291792;28;20133;-70
2023/06/04 07:34:22;;;;;;;4.88;1.40;;;;;;;16.42;100.00;102298.72;10291994;28;20038;-71
2023/06/04 07:39:23;;;;;;;3.38;0.90;;;;;;;16.48;100.00;102308.78;10283064;28;20050;-69
2023/06/04 07:44:23;;;;;;;5.63;1.45;;;;;;;16.40;100.00;102306.47;10289983;28;20053;-70
2023/06/04 07:49:24;;;;;;;5.45;1.25;;;;;;;16.53;100.00;102306.06;10282831;28;20165;-70
2023/06/04 07:54:24;;;;;;;3.40;1.10;;;;;;;16.58;100.00;102306.13;10264628;28;20118;-70
2023/06/04 07:59:25;;;;;;;3.28;1.10;;;;;;;16.69;100.00;102302.38;10267843;28;20031;-70
2023/06/04 08:04:25;;;;;;;3.85;1.30;;;;;;;17.00;100.00;102305.50;10273482;28;20050;-70
2023/06/04 08:09:26;;;;;;;2.67;1.13;;;;;;;16.86;100.00;102307.03;10288075;28;20043;-70
2023/06/04 08:14:27;;;;;;;4.55;1.38;;;;;;;16.79;100.00;102310.00;10288552;28;20043;-69
2023/06/04 08:19:27;;;;;;;6.50;1.83;;;;;;;16.78;100.00;102319.41;10287244;28;20043;-69
2023/06/04 08:24:28;;;;;;;7.30;1.48;;;;;;;16.85;100.00;102316.50;10264241;28;20040;-70
2023/06/04 08:29:28;;;;;;;5.60;1.85;;;;;;;17.23;100.00;102317.41;10278725;28;20042;-69
2023/06/04 08:34:29;;;;;;;4.30;1.10;;;;;;;17.60;100.00;102303.53;10291358;28;20095;-70
2023/06/04 08:39:30;;;;;;;4.38;1.10;;;;;;;17.52;100.00;102307.63;10276237;28;20102;-70
2023/06/04 08:44:30;;;;;;;3.83;1.30;;;;;;;17.59;100.00;102289.84;10249588;28;20075;-70
2023/06/04 08:49:37;;;;;;;3.03;0.90;;;;;;;17.62;100.00;102295.75;10253059;28;20055;-69
2023/06/04 08:54:37;;;;;;;3.35;1.40;;;;;;;17.64;100.00;102298.25;10242167;28;20503;-69
2023/06/04 08:59:38;;;;;;;1.88;0.95;;;;;;;17.88;100.00;102288.44;10263211;28;20039;-70
2023/06/04 09:04:39;;;;;;;2.88;1.20;;;;;;;17.81;100.00;102292.53;10266010;28;20066;-70
2023/06/04 09:09:40;;;;;;;4.70;0.95;;;;;;;17.97;100.00;102297.13;10274508;28;20097;-69
2023/06/04 09:14:41;;;;;;;5.35;1.58;;;;;;;18.13;100.00;102300.84;10252914;28;20062;-70
2023/06/04 09:19:41;;;;;;;2.40;1.00;;;;;;;18.15;100.00;102293.88;10337406;28;20031;-69
2023/06/04 09:24:46;;;;;;;4.07;1.00;;;;;;;18.19;100.00;102294.19;10302541;28;20074;-70
2023/06/04 09:29:54;;;;;;;2.67;1.00;;;;;;;18.34;98.53;102285.88;10238259;28;20063;-69
2023/06/04 09:35:14;;;;;;;1.95;0.68;;;;;;;18.80;99.94;102281.59;10256021;28;20050;-68
2023/06/04 09:40:14;;;;;;;6.20;1.00;;;;;;;19.13;93.01;102277.44;10257935;28;20078;-68
2023/06/04 09:45:32;;;;;;;3.45;0.85;;;;;;;19.39;92.11;102283.03;10275091;28;20039;-69
2023/06/04 09:50:33;;;;;;;3.00;1.00;;;;;;;19.52;93.82;102288.06;10274907;28;20078;-69
2023/06/04 09:55:34;;;;;;;2.33;0.80;;;;;;;19.52;89.46;102277.72;10276354;28;20047;-68
2023/06/04 10:00:35;;;;;;;3.95;0.90;;;;;;;19.49;87.50;102272.69;10271508;28;20388;-68
2023/06/04 10:05:35;;;;;;;2.70;1.10;;;;;;;19.60;87.90;102293.06;10274436;28;20377;-68
2023/06/04 10:10:38;;;;;;;1.80;0.70;;;;;;;19.87;85.81;102284.41;10274752;28;20067;-69
2023/06/04 10:15:38;;;;;;;2.38;0.90;;;;;;;20.10;84.56;102279.31;10251295;28;20041;-69
2023/06/04 10:20:40;;;;;;;2.75;0.70;;;;;;;20.04;85.86;102288.81;10262300;28;20038;-69
2023/06/04 10:25:41;;;;;;;2.97;1.17;;;;;;;20.00;85.45;102287.72;10255410;28;20051;-69
2023/06/04 10:30:41;;;;;;;2.47;0.80;;;;;;;20.08;87.18;102296.34;10284540;28;20484;-70
2023/06/04 10:35:45;;;;;;;4.97;0.90;;;;;;;20.33;84.67;102297.38;10266883;28;20045;-69
2023/06/04 10:40:45;;;;;;;2.90;0.90;;;;;;;20.57;83.97;102291.97;10274071;28;20047;-70
2023/06/04 10:45:46;;;;;;;5.57;1.73;;;;;;;20.90;81.13;102290.41;10271654;28;20049;-70
2023/06/04 10:50:51;;;;;;;3.28;1.08;;;;;;;21.05;80.41;102281.06;10247987;28;20035;-69
2023/06/04 10:55:51;;;;;;;2.33;0.60;;;;;;;21.16;82.46;102288.22;10250564;28;20047;-69
2023/06/04 11:00:52;;;;;;;5.00;1.17;;;;;;;20.97;81.40;102301.28;10275101;28;20031;-69
2023/06/04 11:05:52;;;;;;;3.20;0.77;;;;;;;21.05;78.90;102289.44;10273012;28;20031;-69
2023/06/04 11:10:53;;;;;;;1.48;0.85;;;;;;;21.47;81.35;102304.81;10276082;28;20046;-69
2023/06/04 11:15:53;;;;;;;3.22;0.93;;;;;;;21.51;75.63;102277.88;10271386;28;20035;-68
2023/06/04 11:21:01;;;;;;;1.95;0.80;;;;;;;21.47;75.14;102270.38;10255187;28;20035;-70
2023/06/04 11:26:01;;;;;;;3.58;1.35;;;;;;;21.28;75.47;102267.44;10261359;28;20050;-73
2023/06/04 11:31:02;;;;;;;1.65;0.80;;;;;;;21.62;75.38;102244.16;10254824;28;20036;-70
2023/06/04 11:36:03;;;;;;;4.63;0.82;;;;;;;21.81;77.67;102273.13;10236047;28;20047;-66
2023/06/04 11:41:05;;;;;;;3.83;0.80;;;;;;;21.93;77.21;102267.09;10259628;28;20046;-66
2023/06/04 11:46:06;;;;;;;4.13;1.15;;;;;;;21.84;75.46;102247.28;10281826;28;20035;-66
2023/06/04 11:51:08;;;;;;;2.20;0.82;;;;;;;22.11;75.38;102257.06;10269470;28;20091;-66
2023/06/04 11:56:09;;;;;;;3.92;1.20;;;;;;;22.64;77.11;102267.34;10249339;28;20054;-66
2023/06/04 12:01:09;;;;;;;4.07;1.10;;;;;;;22.98;74.50;102265.13;10259366;28;20035;-66
2023/06/04 12:06:15;;;;;;;5.30;1.25;;;;;;;23.22;75.71;102263.41;10265626;28;20042;-67
2023/06/04 12:11:34;;;;;;;3.90;1.05;;;;;;;23.56;74.15;102263.91;10253919;28;20034;-67
2023/06/04 12:16:34;;;;;;;3.08;1.10;;;;;;;23.99;74.68;102265.66;10269027;28;20122;-66
2023/06/04 12:21:35;;;;;;;4.53;1.00;;;;;;;24.17;72.59;102261.06;10269342;28;20035;-68
2023/06/04 12:26:40;;;;;;;2.97;0.82;;;;;;;24.09;71.20;102251.38;10283032;28;20046;-71
2023/06/04 12:31:41;;;;;;;3.70;0.90;;;;;;;24.44;70.67;102246.13;10271180;28;20074;-72
2023/06/04 12:36:42;;;;;;;4.40;1.60;;;;;;;24.18;70.11;102243.03;10271094;28;20119;-72
2023/06/04 12:41:45;;;;;;;3.55;1.20;;;;;;;24.60;69.99;102224.13;10284983;28;20042;-74
2023/06/04 12:46:46;;;;;;;3.60;1.10;;;;;;;24.31;68.07;102238.53;10264067;28;20043;-68
2023/06/04 12:51:46;;;;;;;3.03;0.93;;;;;;;24.33;69.99;102237.09;10264804;28;20035;-66
2023/06/04 12:56:47;;;;;;;2.22;1.00;;;;;;;24.52;71.74;102256.66;10265256;28;20083;-66
2023/06/04 13:01:48;;;;;;;3.65;1.10;;;;;;;25.27;70.56;102242.22;10244978;28;20340;-67
2023/06/04 13:06:52;;;;;;;3.40;1.20;;;;;;;24.91;67.40;102231.84;10275696;28;20465;-67
2023/06/04 13:11:52;;;;;;;4.50;1.33;;;;;;;24.73;68.31;102237.31;10276404;28;20059;-67
2023/06/04 13:16:53;;;;;;;4.53;1.23;;;;;;;24.30;69.32;102226.44;10275980;28;20047;-69
2023/06/04 13:21:53;;;;;;;1.60;1.02;;;;;;;24.55;70.83;102238.31;10292299;28;20046;-73
2023/06/04 13:26:55;;;;;;;2.75;1.38;;;;;;;24.44;70.97;102248.94;10273615;28;20043;-70
2023/06/04 13:31:55;;;;;;;3.35;0.93;;;;;;;23.91;72.78;102257.94;10257390;28;20035;-71
2023/06/04 13:36:56;;;;;;;9.02;2.47;;;;;;;23.77;73.28;102255.97;10258528;28;20066;-70
2023/06/04 13:41:56;;;;;;;4.15;1.05;;;;;;;24.06;73.91;102254.81;10257992;28;20062;-70
2023/06/04 13:46:58;;;;;;;1.58;1.05;;;;;;;23.41;75.96;102255.75;10256882;28;20218;-70
2023/06/04 13:51:59;;;;;;;3.83;1.10;;;;;;;24.14;75.95;102247.59;10255906;28;20050;-70
2023/06/04 13:57:03;;;;;;;3.47;1.27;;;;;;;24.51;73.23;102252.19;10296085;28;20048;-70
2023/06/04 14:02:04;;;;;;;4.43;1.08;;;;;;;24.69;72.33;102233.47;10295087;28;20138;-71
2023/06/04 14:07:06;;;;;;;5.13;1.13;;;;;;;24.89;73.35;102248.22;10295207;28;20114;-69
2023/06/04 14:12:07;;;;;;;4.90;1.10;;;;;;;24.92;73.35;102253.22;10294732;28;20102;-67
2023/06/04 14:17:07;;;;;;;3.75;1.00;;;;;;;25.14;70.87;102244.78;10259573;28;20047;-69
2023/06/04 14:22:10;;;;;;;2.35;0.93;;;;;;;23.86;73.10;102249.59;10255820;28;20035;-70
2023/06/04 14:27:10;;;;;;;2.22;1.10;;;;;;;24.97;72.28;102250.25;10254751;28;20043;-71
2023/06/04 14:32:11;;;;;;;4.78;0.95;;;;;;;24.52;72.31;102250.22;10253980;28;20035;-71
2023/06/04 14:37:11;;;;;;;3.72;1.00;;;;;;;24.00;72.12;102244.81;10253887;28;20047;-72
2023/06/04 14:42:12;;;;;;;3.05;1.15;;;;;;;24.05;73.19;102249.50;10253244;28;20098;-72
2023/06/04 14:47:13;;;;;;;4.30;0.88;;;;;;;24.81;71.54;102243.34;10234698;28;20045;-71
2023/06/04 14:52:14;;;;;;;2.17;0.90;;;;;;;24.42;71.62;102194.13;10237350;28;20066;-72
2023/06/04 14:57:16;;;;;;;2.10;1.10;;;;;;;24.99;70.50;102245.13;10254361;28;20039;-72
2023/06/04 15:02:19;;;;;;;5.95;1.00;;;;;;;24.74;69.23;102238.13;10246543;28;20047;-72
2023/06/04 15:07:19;;;;;;;3.92;1.08;;;;;;;24.11;70.13;102235.00;10243985;28;20545;-71
2023/06/04 15:12:20;;;;;;;1.40;0.80;;;;;;;24.59;69.69;102232.88;10235141;28;20031;-72
2023/06/04 15:17:21;;;;;;;3.72;0.90;;;;;;;24.23;70.80;102242.94;10251827;28;20035;-72
2023/06/04 15:22:21;;;;;;;0.90;0.90;;;;;;;24.02;72.12;102247.31;10254255;28;20122;-70
2023/06/04 15:27:22;;;;;;;3.50;1.15;;;;;;;24.17;70.43;102239.38;10251229;28;20058;-72
2023/06/04 15:32:22;;;;;;;4.10;1.00;;;;;;;24.08;70.68;102234.78;10267083;28;20039;-74
2023/06/04 15:37:23;;;;;;;2.92;1.15;;;;;;;24.31;68.96;102232.88;10270698;28;20035;-70
2023/06/04 15:42:23;;;;;;;4.30;1.38;;;;;;;24.09;69.64;102244.91;10271010;28;20546;-69
2023/06/04 15:47:24;;;;;;;5.18;1.15;;;;;;;24.13;68.13;102229.06;10271049;28;20065;-68
2023/06/04 15:52:24;;;;;;;2.25;1.20;;;;;;;24.10;69.02;102243.75;10270592;28;20042;-70
2023/06/04 15:57:25;;;;;;;3.63;1.42;;;;;;;24.53;69.80;102257.50;10267301;28;20027;-66
2023/06/04 16:02:26;;;;;;;1.88;1.02;;;;;;;24.41;69.93;102248.72;10250054;28;20045;-70
2023/06/04 16:07:26;;;;;;;3.83;1.20;;;;;;;24.96;67.33;102237.34;10252429;28;20024;-70
2023/06/04 16:12:27;;;;;;;2.95;1.23;;;;;;;25.15;65.62;102232.31;10291070;28;20031;-71
2023/06/04 16:17:27;;;;;;;3.15;1.10;;;;;;;23.57;64.94;102231.84;10288565;28;20035;-71
2023/06/04 16:22:28;;;;;;;4.07;0.80;;;;;;;23.65;65.10;102218.19;10291981;28;20087;-71
2023/06/04 16:27:28;;;;;;;1.95;1.42;;;;;;;24.11;64.36;102228.56;10219697;28;20071;-73
2023/06/04 16:32:29;;;;;;;2.20;0.90;;;;;;;24.70;64.09;102223.88;10250368;28;20036;-74
2023/06/04 16:37:29;;;;;;;3.17;0.90;;;;;;;24.01;64.70;102217.53;10267860;28;20101;-70
2023/06/04 16:42:30;;;;;;;1.92;1.30;;;;;;;23.31;66.07;102239.06;10276208;28;20035;-70
2023/06/04 16:47:31;;;;;;;3.20;1.20;;;;;;;22.05;68.78;102235.84;10289014;28;20042;-70
2023/06/04 16:52:32;;;;;;;3.67;1.88;;;;;;;20.83;70.31;102233.88;10303638;28;20050;-70
2023/06/04 16:57:32;;;;;;;6.85;1.45;;;;;;;19.81;72.96;102249.19;10291710;28;20078;-70
2023/06/04 17:02:33;;;;;;;4.38;1.35;;;;;;;19.02;76.55;102240.31;10290188;28;20034;-69
2023/06/04 17:07:33;;;;;;;3.72;1.10;;;;;;;18.45;80.23;102264.44;10288278;28;20546;-69
2023/06/04 17:12:36;;;;;;;4.88;1.50;;;;;;;18.25;82.27;102269.94;10294361;28;20503;-69
2023/06/04 17:17:36;;;;;;;4.47;1.33;;;;;;;18.17;83.86;102254.59;10296887;28;20042;-70
2023/06/04 17:22:37;;;;;;;2.97;1.35;;;;;;;17.88;87.10;102263.38;10297981;28;20518;-69
2023/06/04 17:27:38;;;;;;;3.33;1.40;;;;;;;17.46;89.36;102275.28;10296175;28;20113;-70
2023/06/04 17:32:38;;;;;;;3.70;1.80;;;;;;;17.30;89.61;102257.66;10282524;28;20062;-71
2023/06/04 17:37:39;;;;;;;4.35;1.60;;;;;;;17.03;92.29;102265.19;10255599;28;20050;-70
2023/06/04 17:42:46;;;;;;;6.43;1.85;;;;;;;16.71;95.31;102274.31;10272955;28;20062;-70
2023/06/04 17:47:46;;;;;;;2.83;1.45;;;;;;;16.57;99.69;102284.16;10264288;28;20312;-69
2023/06/04 17:52:47;;;;;;;5.65;1.58;;;;;;;16.50;99.27;102278.78;10278011;28;20047;-71
2023/06/04 17:57:48;;;;;;;3.92;2.00;;;;;;;16.15;100.00;102277.25;10264488;28;20115;-68
2023/06/04 18:02:48;;;;;;;3.00;1.70;;;;;;;15.84;100.00;102289.88;10266352;28;20047;-70
2023/06/04 18:07:49;;;;;;;2.70;1.52;;;;;;;15.75;100.00;102289.47;10272539;28;20113;-70
2023/06/04 18:12:51;;;;;;;2.33;1.20;;;;;;;15.59;100.00;102293.91;10264122;28;20053;-70
2023/06/04 18:17:52;;;;;;;4.30;1.60;;;;;;;15.36;100.00;102302.41;10263158;28;20035;-70
2023/06/04 18:22:52;;;;;;;4.28;1.42;;;;;;;15.18;100.00;102295.19;10246267;28;20043;-69
2023/06/04 18:27:53;;;;;;;5.35;1.42;;;;;;;14.53;100.00;102219.63;10261275;28;21503;-68
2023/06/04 18:32:53;;;;;;;2.00;1.48;;;;;;;14.92;100.00;102297.47;10283780;28;20487;-70
2023/06/04 18:37:54;;;;;;;2.53;1.17;;;;;;;14.77;100.00;102300.78;10286021;28;20034;-70
2023/06/04 18:42:54;;;;;;;4.85;1.73;;;;;;;14.66;100.00;102296.16;10291659;28;20037;-70
2023/06/04 18:47:55;;;;;;;5.07;1.70;;;;;;;14.48;100.00;102291.59;10288403;28;20075;-69
2023/06/04 18:52:57;;;;;;;2.58;1.77;;;;;;;14.38;100.00;102302.47;10291328;28;20266;-72
2023/06/04 18:57:58;;;;;;;4.03;1.70;;;;;;;14.22;100.00;102307.69;10266279;28;20106;-71
2023/06/04 19:02:58;;;;;;;3.03;1.70;;;;;;;13.91;100.00;102287.63;10275633;28;20098;-71
2023/06/04 19:07:59;;;;;;;2.33;1.70;;;;;;;13.93;100.00;102301.22;10289375;28;20046;-71
2023/06/04 19:12:59;;;;;;;3.25;1.88;;;;;;;13.83;100.00;102306.50;10284169;28;20093;-69
2023/06/04 19:18:00;;;;;;;4.07;1.88;;;;;;;13.52;100.00;102309.41;10293159;28;20047;-72
2023/06/04 19:23:00;;;;;;;4.18;2.17;;;;;;;13.41;100.00;102304.69;10290873;28;20046;-71
2023/06/04 19:28:03;;;;;;;4.93;2.22;;;;;;;13.36;100.00;102317.56;10293366;28;20103;-71
2023/06/04 19:33:03;;;;;;;6.13;2.33;;;;;;;13.25;100.00;102322.81;10292236;28;20128;-71
2023/06/04 19:38:04;;;;;;;4.57;2.63;;;;;;;13.08;100.00;102327.31;10291491;28;20110;-71
2023/06/04 19:43:05;;;;;;;4.35;3.13;;;;;;;12.95;100.00;102328.34;10291495;28;20062;-71
2023/06/04 19:48:05;;;;;;;5.93;3.20;;;;;;;12.80;100.00;102341.78;10297888;28;20042;-71
2023/06/04 19:53:06;;;;;;;5.13;2.75;;;;;;;12.56;100.00;102313.19;10259853;28;20066;-70
2023/06/04 19:58:07;;;;;;;21.10;4.22;;;;;;;12.41;100.00;102333.75;10274817;28;20050;-71
2023/06/04 20:03:07;;;;;;;5.43;3.40;;;;;;;12.37;100.00;102349.09;10248479;28;20091;-71
2023/06/04 20:08:08;;;;;;;8.00;3.80;;;;;;;12.27;100.00;102349.63;10248720;28;20451;-71
2023/06/04 20:13:09;;;;;;;8.63;4.18;;;;;;;12.18;100.00;102355.69;10267459;28;20047;-71
2023/06/04 20:18:10;;;;;;;7.22;3.38;;;;;;;12.10;100.00;102349.38;10267007;28;20066;-70
2023/06/04 20:23:11;;;;;;;4.03;2.55;;;;;;;11.91;100.00;102343.00;10242896;28;20039;-72
2023/06/04 20:28:13;;;;;;;9.15;3.80;;;;;;;11.86;100.00;102364.03;10248420;28;20043;-70
2023/06/04 20:33:13;;;;;;;8.82;3.70;;;;;;;11.75;100.00;102368.38;10252395;28;20050;-70
2023/06/04 20:38:13;;;;;;;10.13;3.55;;;;;;;11.64;100.00;102371.88;10243465;28;20510;-71
2023/06/04 20:43:15;;;;;;;6.65;3.22;;;;;;;11.58;100.00;102372.78;10258126;28;20450;-69
2023/06/04 20:48:16;;;;;;;8.63;3.15;;;;;;;11.50;100.00;102373.91;10256420;28;20045;-70
2023/06/04 20:53:16;;;;;;;7.22;3.08;;;;;;;11.35;100.00;102387.13;10263326;28;20081;-71
2023/06/04 20:58:17;;;;;;;6.38;2.97;;;;;;;11.23;100.00;102381.50;10259304;28;20047;-70
2023/06/04 21:03:19;;;;;;;5.97;3.22;;;;;;;11.22;100.00;102401.88;10258284;28;20042;-70
2023/06/04 21:08:20;;;;;;;5.32;3.03;;;;;;;11.16;100.00;102397.22;10268845;28;20057;-70
2023/06/04 21:13:21;;;;;;;5.97;3.03;;;;;;;11.06;100.00;102398.56;10254504;28;20067;-70
2023/06/04 21:18:22;;;;;;;5.57;3.30;;;;;;;10.31;100.00;102290.84;10288866;28;20047;-70
2023/06/04 21:23:23;;;;;;;7.32;3.03;;;;;;;10.91;100.00;102400.75;10283821;28;20424;-70
2023/06/04 21:28:23;;;;;;;6.90;4.00;;;;;;;10.82;100.00;102396.56;10290813;28;20069;-71
2023/06/04 21:33:24;;;;;;;6.40;3.65;;;;;;;10.73;100.00;102400.63;10284947;28;20459;-70
2023/06/04 21:38:26;;;;;;;5.15;3.33;;;;;;;10.63;100.00;102401.94;10259645;28;20039;-71
2023/06/04 21:43:27;;;;;;;7.55;3.63;;;;;;;10.50;100.00;102393.75;10285179;28;20129;-70
2023/06/04 21:48:28;;;;;;;6.50;3.20;;;;;;;10.23;100.00;102369.00;10278832;28;20062;-72
2023/06/04 21:53:29;;;;;;;7.05;3.50;;;;;;;10.34;100.00;102394.22;10276029;28;20050;-70
2023/06/04 21:58:30;;;;;;;7.82;3.00;;;;;;;10.29;100.00;102397.53;10265196;28;20049;-70
2023/06/04 22:03:30;;;;;;;6.03;3.58;;;;;;;10.27;100.00;102399.66;10273699;28;20099;-70
2023/06/04 22:08:32;;;;;;;8.75;4.20;;;;;;;10.20;100.00;102402.44;10266427;28;20049;-71
2023/06/04 22:13:33;;;;;;;5.00;3.50;;;;;;;10.15;100.00;102407.75;10269041;28;20046;-71
2023/06/04 22:18:33;;;;;;;5.70;2.83;;;;;;;10.03;100.00;102387.44;10252280;28;20106;-72
2023/06/04 22:23:35;;;;;;;5.93;3.08;;;;;;;10.04;100.00;102406.47;10274679;28;20046;-71
2023/06/04 22:28:35;;;;;;;5.47;3.53;;;;;;;9.99;100.00;102408.19;10297850;28;20035;-69
2023/06/04 22:33:36;;;;;;;5.60;2.95;;;;;;;10.01;100.00;102400.56;10286106;28;20047;-69
2023/06/04 22:38:36;;;;;;;7.07;3.47;;;;;;;9.72;100.00;102335.84;10253312;28;20094;-69
2023/06/04 22:43:37;;;;;;;12.10;3.42;;;;;;;10.11;100.00;102395.47;10287942;28;20073;-70
2023/06/04 22:48:37;;;;;;;5.88;2.72;;;;;;;10.16;100.00;102398.44;10288878;28;20051;-70
2023/06/04 22:53:38;;;;;;;6.90;3.55;;;;;;;10.24;100.00;102389.94;10273773;28;20043;-70